Time;durP1;ratioP1;P1;durP2;ratioP2;P2;SDS_P1;SDS_P2;PMS_P1;PMS_P2;Temp;Humidity;BMP_temperature;BMP_pressure;BME280_temperature;BME280_humidity;BME280_pressure;Samples;Min_cycle;Max_cycle;Signal;HPM_P1;HPM_P2
2022/06/14 00:03:18;;;;;;;3.35;1.77;;;;;;;;;;5042320;28;20040;-52
2022/06/14 00:05:44;;;;;;;5.35;2.15;;;;;;;;;;5050601;28;20025;-53
2022/06/14 00:08:11;;;;;;;3.90;1.95;;;;;;;;;;5047699;28;20056;-54
2022/06/14 00:10:37;;;;;;;2.38;1.77;;;;;;;;;;5040674;28;20389;-52
2022/06/14 00:13:04;;;;;;;4.28;2.05;;;;;;;;;;5050656;28;20101;-53
2022/06/14 00:15:30;;;;;;;5.80;2.05;;;;;;;;;;5050360;28;20052;-53
2022/06/14 00:17:56;;;;;;;6.40;2.35;;;;;;;;;;5050244;28;20041;-53
2022/06/14 00:20:23;;;;;;;3.88;1.92;;;;;;;;;;5031630;28;20026;-51
2022/06/14 00:22:49;;;;;;;4.10;1.92;;;;;;;;;;5048557;28;20032;-53
2022/06/14 00:25:21;;;;;;;4.32;2.10;;;;;;;;;;5051505;28;20024;-51
2022/06/14 00:27:47;;;;;;;3.90;1.90;;;;;;;;;;5044704;28;20058;-50
2022/06/14 00:30:13;;;;;;;3.65;2.15;;;;;;;;;;5054401;28;20017;-51
2022/06/14 00:32:39;;;;;;;4.32;2.05;;;;;;;;;;5048150;28;20029;-51
2022/06/14 00:35:05;;;;;;;3.03;1.90;;;;;;;;;;5053387;28;20096;-48
2022/06/14 00:37:31;;;;;;;3.92;1.83;;;;;;;;;;5039564;28;20547;-49
2022/06/14 00:39:57;;;;;;;6.97;2.78;;;;;;;;;;5049556;28;20104;-50
2022/06/14 00:42:23;;;;;;;4.05;2.35;;;;;;;;;;5051459;28;20085;-52
2022/06/14 00:45:27;;;;;;;3.53;1.77;;;;;;;;;;5049826;28;20081;-53
2022/06/14 00:48:01;;;;;;;3.30;1.90;;;;;;;;;;5053897;28;20112;-49
2022/06/14 00:50:54;;;;;;;4.78;1.88;;;;;;;;;;5050205;28;20059;-48
2022/06/14 00:53:28;;;;;;;6.40;1.75;;;;;;;;;;5041799;28;20029;-52
2022/06/14 00:56:01;;;;;;;4.13;2.03;;;;;;;;;;5050303;28;20383;-53
2022/06/14 00:58:29;;;;;;;3.38;1.83;;;;;;;;;;5034072;28;20017;-52
2022/06/14 01:01:05;;;;;;;4.03;1.90;;;;;;;;;;5049516;28;20463;-52
2022/06/14 01:03:34;;;;;;;3.17;1.75;;;;;;;;;;5047800;28;20029;-53
2022/06/14 01:06:16;;;;;;;3.95;2.05;;;;;;;;;;5052890;28;20032;-53
2022/06/14 01:08:45;;;;;;;2.35;1.73;;;;;;;;;;5054146;28;20024;-53
2022/06/14 01:11:13;;;;;;;3.13;1.75;;;;;;;;;;5058266;28;20021;-52
2022/06/14 01:13:39;;;;;;;3.17;1.67;;;;;;;;;;5057735;28;20112;-52
2022/06/14 01:16:05;;;;;;;4.75;2.05;;;;;;;;;;5053280;28;20036;-54
2022/06/14 01:18:31;;;;;;;3.35;1.80;;;;;;;;;;5043012;28;20099;-52
2022/06/14 01:20:57;;;;;;;4.18;2.10;;;;;;;;;;5049670;28;20490;-50
2022/06/14 01:23:24;;;;;;;4.75;1.85;;;;;;;;;;5046175;28;20029;-50
2022/06/14 01:25:52;;;;;;;3.90;2.13;;;;;;;;;;5053142;28;20028;-52
2022/06/14 01:28:20;;;;;;;3.00;1.75;;;;;;;;;;5053504;28;20029;-53
2022/06/14 01:30:48;;;;;;;3.88;1.88;;;;;;;;;;5052856;28;20072;-54
2022/06/14 01:33:17;;;;;;;3.60;2.17;;;;;;;;;;5053242;28;20366;-50
2022/06/14 01:35:45;;;;;;;3.78;2.55;;;;;;;;;;5046756;28;20029;-52
2022/06/14 01:38:13;;;;;;;4.68;1.92;;;;;;;;;;5053432;28;20071;-50
2022/06/14 01:40:46;;;;;;;4.50;2.50;;;;;;;;;;5053617;28;20021;-51
2022/06/14 01:43:35;;;;;;;3.83;1.83;;;;;;;;;;5050319;28;20470;-50
2022/06/14 01:46:08;;;;;;;3.13;2.08;;;;;;;;;;5052516;28;20438;-50
2022/06/14 01:48:34;;;;;;;3.33;2.20;;;;;;;;;;5053121;28;20398;-52
2022/06/14 01:54:05;;;;;;;3.92;2.53;;;;;;;;;;5052253;28;20500;-53
2022/06/14 01:56:42;;;;;;;6.22;2.10;;;;;;;;;;5052992;28;20406;-55
2022/06/14 01:59:17;;;;;;;4.97;2.20;;;;;;;;;;5044991;28;20037;-54
2022/06/14 02:01:43;;;;;;;4.00;2.05;;;;;;;;;;5046083;28;20021;-53
2022/06/14 02:07:01;;;;;;;3.70;1.90;;;;;;;;;;5047580;28;20413;-53
2022/06/14 02:09:34;;;;;;;3.22;2.05;;;;;;;;;;5052887;28;20033;-53
2022/06/14 02:12:03;;;;;;;3.90;2.03;;;;;;;;;;5043533;28;20037;-54
2022/06/14 02:14:39;;;;;;;3.70;1.90;;;;;;;;;;5052714;28;20021;-53
2022/06/14 02:17:10;;;;;;;3.45;1.77;;;;;;;;;;5051592;28;20037;-52
2022/06/14 02:19:39;;;;;;;3.88;1.88;;;;;;;;;;5041619;28;20033;-53
2022/06/14 02:22:15;;;;;;;4.35;1.80;;;;;;;;;;5045310;28;20091;-53
2022/06/14 02:24:49;;;;;;;4.10;1.85;;;;;;;;;;5038493;28;20030;-54
2022/06/14 02:27:19;;;;;;;3.08;2.05;;;;;;;;;;5032207;28;20042;-54
2022/06/14 02:29:48;;;;;;;2.60;1.63;;;;;;;;;;5050794;28;20414;-54
2022/06/14 02:32:21;;;;;;;3.90;2.00;;;;;;;;;;5042735;28;20029;-54
2022/06/14 02:34:53;;;;;;;3.17;1.75;;;;;;;;;;5039405;28;20087;-54
2022/06/14 02:37:33;;;;;;;4.68;2.00;;;;;;;;;;5048544;28;20413;-54
2022/06/14 02:40:02;;;;;;;4.78;2.03;;;;;;;;;;5050398;28;20035;-55
2022/06/14 02:42:31;;;;;;;3.20;1.90;;;;;;;;;;5048583;28;20025;-54
2022/06/14 02:45:04;;;;;;;3.88;2.22;;;;;;;;;;5047427;28;20048;-54
2022/06/14 02:47:42;;;;;;;4.40;2.35;;;;;;;;;;5050023;28;20055;-52
2022/06/14 02:50:12;;;;;;;3.90;2.13;;;;;;;;;;5045452;28;20640;-54
2022/06/14 02:52:40;;;;;;;3.30;1.77;;;;;;;;;;5048820;28;20074;-53
2022/06/14 02:55:17;;;;;;;4.38;1.63;;;;;;;;;;5049619;28;20021;-53
2022/06/14 02:57:53;;;;;;;6.18;2.00;;;;;;;;;;5050416;28;20078;-54
2022/06/14 03:00:21;;;;;;;4.90;2.25;;;;;;;;;;5046288;28;20017;-53
2022/06/14 03:02:53;;;;;;;6.25;1.80;;;;;;;;;;5040363;28;20431;-53
2022/06/14 03:05:25;;;;;;;3.67;1.92;;;;;;;;;;5032548;28;20034;-53
2022/06/14 03:07:56;;;;;;;4.32;1.88;;;;;;;;;;5029616;28;20075;-52
2022/06/14 03:10:23;;;;;;;4.43;2.13;;;;;;;;;;5042959;28;20029;-52
2022/06/14 03:13:03;;;;;;;6.38;3.00;;;;;;;;;;5060652;28;20035;-54
2022/06/14 03:15:32;;;;;;;6.20;1.85;;;;;;;;;;5047090;28;20411;-53
2022/06/14 03:18:01;;;;;;;4.82;2.05;;;;;;;;;;5050906;28;20029;-54
2022/06/14 03:20:38;;;;;;;5.63;2.25;;;;;;;;;;5051751;28;20024;-56
2022/06/14 03:23:13;;;;;;;3.22;2.00;;;;;;;;;;5051073;28;20124;-55
2022/06/14 03:25:45;;;;;;;2.97;1.98;;;;;;;;;;5048909;28;20026;-55
2022/06/14 03:28:16;;;;;;;5.15;2.30;;;;;;;;;;5041266;28;20071;-55
2022/06/14 03:30:44;;;;;;;4.03;2.58;;;;;;;;;;5050877;28;20471;-55
2022/06/14 03:33:30;;;;;;;2.80;2.00;;;;;;;;;;5050542;28;20037;-54
2022/06/14 03:35:56;;;;;;;3.92;1.88;;;;;;;;;;5023278;28;20099;-55
2022/06/14 03:38:37;;;;;;;5.32;2.05;;;;;;;;;;5051249;28;20040;-55
2022/06/14 03:41:05;;;;;;;6.17;2.27;;;;;;;;;;5050875;28;20075;-54
2022/06/14 03:43:31;;;;;;;2.90;2.03;;;;;;;;;;5050707;28;20071;-55
2022/06/14 03:46:00;;;;;;;2.78;1.85;;;;;;;;;;5050260;28;20049;-54
2022/06/14 03:48:27;;;;;;;7.13;3.28;;;;;;;;;;5051058;28;20033;-55
2022/06/14 03:50:59;;;;;;;2.75;1.70;;;;;;;;;;5050533;28;20099;-54
2022/06/14 03:53:38;;;;;;;4.10;1.92;;;;;;;;;;5050791;28;20039;-53
2022/06/14 03:56:13;;;;;;;3.80;1.77;;;;;;;;;;5052200;28;20061;-52
2022/06/14 03:58:51;;;;;;;3.83;1.90;;;;;;;;;;5050296;28;20037;-55
2022/06/14 04:01:22;;;;;;;5.28;1.90;;;;;;;;;;5050411;28;20056;-53
2022/06/14 04:03:48;;;;;;;2.92;2.17;;;;;;;;;;5049314;28;20398;-53
2022/06/14 04:06:19;;;;;;;4.07;2.03;;;;;;;;;;5050745;28;20033;-53
2022/06/14 04:08:57;;;;;;;5.20;2.15;;;;;;;;;;5041005;28;20504;-51
2022/06/14 04:11:23;;;;;;;4.82;2.28;;;;;;;;;;5049901;28;20029;-51
2022/06/14 04:14:18;;;;;;;5.60;2.03;;;;;;;;;;5049846;28;20029;-52
2022/06/14 04:16:47;;;;;;;3.45;1.77;;;;;;;;;;5027899;28;20049;-54
2022/06/14 04:19:22;;;;;;;3.95;2.17;;;;;;;;;;5047604;28;20035;-52
2022/06/14 04:21:48;;;;;;;4.13;2.30;;;;;;;;;;5030893;28;20089;-53
2022/06/14 04:24:20;;;;;;;5.05;2.33;;;;;;;;;;5038273;28;20478;-52
2022/06/14 04:26:46;;;;;;;4.88;2.00;;;;;;;;;;5045516;28;20121;-53
2022/06/14 04:29:47;;;;;;;3.80;2.30;;;;;;;;;;5050367;28;20325;-54
2022/06/14 04:32:16;;;;;;;4.43;2.38;;;;;;;;;;5027090;28;20037;-54
2022/06/14 04:34:45;;;;;;;4.40;1.88;;;;;;;;;;5042477;28;20437;-50
2022/06/14 04:37:26;;;;;;;3.92;2.33;;;;;;;;;;5050058;28;20446;-55
2022/06/14 04:39:56;;;;;;;5.90;2.17;;;;;;;;;;5040552;28;20025;-53
2022/06/14 04:42:42;;;;;;;5.00;1.90;;;;;;;;;;5038287;28;20022;-54
2022/06/14 04:45:12;;;;;;;4.32;2.10;;;;;;;;;;5045793;28;20041;-54
2022/06/14 04:47:48;;;;;;;3.90;2.45;;;;;;;;;;5049796;28;20449;-54
2022/06/14 04:50:17;;;;;;;2.50;2.08;;;;;;;;;;5037881;28;20044;-53
2022/06/14 04:52:46;;;;;;;4.97;2.00;;;;;;;;;;5035407;28;20034;-53
2022/06/14 04:55:30;;;;;;;3.53;2.40;;;;;;;;;;5050207;28;20086;-53
2022/06/14 04:58:08;;;;;;;3.47;2.03;;;;;;;;;;5037384;28;20403;-55
2022/06/14 05:00:36;;;;;;;8.07;2.30;;;;;;;;;;5043561;28;20108;-53
2022/06/14 05:03:11;;;;;;;5.53;3.00;;;;;;;;;;5051552;28;20024;-53
2022/06/14 05:05:40;;;;;;;3.80;2.10;;;;;;;;;;5050316;28;20031;-54
2022/06/14 05:08:25;;;;;;;4.55;2.22;;;;;;;;;;5049861;28;20017;-50
2022/06/14 05:10:56;;;;;;;5.50;2.22;;;;;;;;;;5053978;28;20039;-53
2022/06/14 05:13:25;;;;;;;4.10;2.73;;;;;;;;;;5056666;28;20017;-51
2022/06/14 05:15:57;;;;;;;4.30;2.60;;;;;;;;;;5047563;28;20267;-53
2022/06/14 05:18:35;;;;;;;2.95;2.20;;;;;;;;;;5042922;28;20025;-53
2022/06/14 05:21:13;;;;;;;4.60;2.38;;;;;;;;;;5052911;28;20363;-53
2022/06/14 05:23:44;;;;;;;5.57;2.40;;;;;;;;;;5053659;28;20021;-53
2022/06/14 05:26:25;;;;;;;3.28;2.10;;;;;;;;;;5052958;28;20094;-52
2022/06/14 05:29:04;;;;;;;3.88;2.33;;;;;;;;;;5053430;28;20040;-52
2022/06/14 05:31:36;;;;;;;4.35;2.25;;;;;;;;;;5052485;28;20033;-50
2022/06/14 05:34:06;;;;;;;3.97;2.25;;;;;;;;;;5052570;28;20021;-51
2022/06/14 05:36:39;;;;;;;5.87;2.80;;;;;;;;;;5053870;28;20029;-52
2022/06/14 05:39:13;;;;;;;3.78;2.08;;;;;;;;;;5052323;28;20268;-51
2022/06/14 05:41:41;;;;;;;3.33;2.30;;;;;;;;;;5053676;28;20028;-53
2022/06/14 05:44:11;;;;;;;3.60;2.10;;;;;;;;;;5051091;28;20032;-53
2022/06/14 05:46:46;;;;;;;4.88;2.72;;;;;;;;;;5053024;28;20509;-54
2022/06/14 05:49:18;;;;;;;5.80;2.60;;;;;;;;;;5051067;28;20044;-55
2022/06/14 05:52:01;;;;;;;6.57;2.72;;;;;;;;;;5050985;28;20028;-52
2022/06/14 05:54:30;;;;;;;3.85;2.20;;;;;;;;;;5053010;28;20029;-54
2022/06/14 05:57:01;;;;;;;3.40;2.20;;;;;;;;;;5049572;28;20021;-52
2022/06/14 05:59:32;;;;;;;2.95;1.80;;;;;;;;;;5050232;28;20412;-51
2022/06/14 06:02:16;;;;;;;5.23;2.27;;;;;;;;;;5050047;28;20104;-54
2022/06/14 06:04:52;;;;;;;4.97;2.33;;;;;;;;;;5053095;28;20086;-53
2022/06/14 06:07:22;;;;;;;5.90;2.42;;;;;;;;;;5052111;28;20195;-54
2022/06/14 06:10:02;;;;;;;3.80;2.25;;;;;;;;;;5048014;28;20401;-55
2022/06/14 06:12:31;;;;;;;3.58;2.15;;;;;;;;;;5041046;28;20060;-57
2022/06/14 06:15:00;;;;;;;3.47;1.90;;;;;;;;;;5044568;28;20040;-56
2022/06/14 06:17:41;;;;;;;6.57;2.38;;;;;;;;;;5052595;28;20060;-55
2022/06/14 06:20:19;;;;;;;4.40;2.60;;;;;;;;;;5051851;28;20063;-57
2022/06/14 06:23:20;;;;;;;6.93;2.63;;;;;;;;;;5052722;28;20108;-55
2022/06/14 06:25:48;;;;;;;4.68;2.10;;;;;;;;;;5030349;28;20029;-53
2022/06/14 06:28:14;;;;;;;5.75;2.95;;;;;;;;;;5045716;28;20043;-51
2022/06/14 06:30:40;;;;;;;7.10;2.53;;;;;;;;;;5045313;28;20040;-49
2022/06/14 06:33:10;;;;;;;5.97;2.17;;;;;;;;;;5044974;28;20465;-53
2022/06/14 06:35:41;;;;;;;6.50;2.63;;;;;;;;;;5052505;28;20016;-52
2022/06/14 06:38:13;;;;;;;4.90;2.60;;;;;;;;;;5051374;28;20143;-52
2022/06/14 06:41:49;;;;;;;8.77;2.58;;;;;;;;;;5040146;28;20039;-52
2022/06/14 06:43:28;;;;;;;5.93;2.40;;;;;;;;;;5041568;28;20033;-50
2022/06/14 06:45:54;;;;;;;7.82;2.67;;;;;;;;;;5041276;28;20106;-52
2022/06/14 06:48:23;;;;;;;6.13;2.70;;;;;;;;;;5051892;28;20056;-50
2022/06/14 06:50:52;;;;;;;7.32;2.90;;;;;;;;;;5053027;28;20032;-48
2022/06/14 06:53:22;;;;;;;6.95;2.28;;;;;;;;;;5058057;28;20569;-52
2022/06/14 06:55:51;;;;;;;6.53;2.97;;;;;;;;;;5051115;28;20112;-51
2022/06/14 06:58:36;;;;;;;6.20;2.92;;;;;;;;;;5044022;28;20690;-53
2022/06/14 07:01:13;;;;;;;5.82;2.80;;;;;;;;;;5045305;28;20433;-51
2022/06/14 07:03:39;;;;;;;6.55;3.10;;;;;;;;;;5049366;28;20492;-52
2022/06/14 07:06:07;;;;;;;7.68;3.00;;;;;;;;;;5050000;28;20029;-51
2022/06/14 07:08:42;;;;;;;6.75;2.95;;;;;;;;;;5051647;28;20040;-53
2022/06/14 07:11:10;;;;;;;6.05;3.60;;;;;;;;;;5049591;28;20044;-51
2022/06/14 07:13:43;;;;;;;6.55;2.67;;;;;;;;;;5047055;28;20013;-51
2022/06/14 07:16:27;;;;;;;9.45;3.13;;;;;;;;;;5050856;28;20056;-51
2022/06/14 07:19:05;;;;;;;9.32;3.45;;;;;;;;;;5051095;28;20032;-48
2022/06/14 07:21:34;;;;;;;6.13;3.17;;;;;;;;;;5051057;28;20501;-53
2022/06/14 07:24:09;;;;;;;5.05;2.47;;;;;;;;;;5050096;28;20470;-53
2022/06/14 07:26:38;;;;;;;5.65;2.55;;;;;;;;;;5048488;28;20067;-52
2022/06/14 07:29:07;;;;;;;5.45;2.65;;;;;;;;;;5048934;28;20029;-52
2022/06/14 07:31:42;;;;;;;9.73;3.00;;;;;;;;;;5045432;28;20028;-52
2022/06/14 07:34:10;;;;;;;7.97;2.70;;;;;;;;;;5051105;28;20052;-55
2022/06/14 07:36:35;;;;;;;4.45;2.40;;;;;;;;;;5051771;28;20028;-54
2022/06/14 07:39:07;;;;;;;6.80;2.83;;;;;;;;;;5049390;28;20036;-55
2022/06/14 07:41:42;;;;;;;4.97;2.85;;;;;;;;;;5048265;28;20331;-56
2022/06/14 07:44:17;;;;;;;5.95;3.00;;;;;;;;;;5049840;28;20033;-56
2022/06/14 07:46:48;;;;;;;7.32;3.38;;;;;;;;;;5050761;28;20398;-54
2022/06/14 07:49:18;;;;;;;10.32;3.67;;;;;;;;;;5049214;28;20043;-57
2022/06/14 07:52:10;;;;;;;6.20;2.90;;;;;;;;;;5049467;28;20032;-57
2022/06/14 07:54:56;;;;;;;5.13;2.50;;;;;;;;;;5047598;28;20482;-52
2022/06/14 07:57:27;;;;;;;9.07;3.05;;;;;;;;;;5049214;28;20766;-54
2022/06/14 08:01:07;;;;;;;6.03;2.65;;;;;;;;;;5049308;28;20053;-55
2022/06/14 08:02:47;;;;;;;7.05;2.63;;;;;;;;;;5049214;28;20029;-55
2022/06/14 08:05:16;;;;;;;5.43;2.38;;;;;;;;;;5049973;28;20033;-54
2022/06/14 08:07:43;;;;;;;6.95;2.92;;;;;;;;;;5047753;28;20033;-50
2022/06/14 08:10:32;;;;;;;7.35;2.83;;;;;;;;;;5049850;28;20025;-49
2022/06/14 08:12:58;;;;;;;6.88;2.80;;;;;;;;;;5049114;28;20588;-48
2022/06/14 08:15:40;;;;;;;4.82;2.30;;;;;;;;;;5049547;28;20048;-53
2022/06/14 08:18:12;;;;;;;5.05;2.75;;;;;;;;;;5047045;28;20033;-55
2022/06/14 08:20:43;;;;;;;6.68;2.58;;;;;;;;;;5050760;28;20029;-50
2022/06/14 08:23:18;;;;;;;7.90;2.45;;;;;;;;;;5044862;28;20029;-52
2022/06/14 08:25:47;;;;;;;3.60;2.40;;;;;;;;;;5048129;28;20352;-50
2022/06/14 08:28:20;;;;;;;4.55;2.47;;;;;;;;;;5048238;28;20025;-49
2022/06/14 08:30:52;;;;;;;5.40;2.50;;;;;;;;;;5049429;28;20087;-52
2022/06/14 08:33:22;;;;;;;5.30;2.25;;;;;;;;;;5048552;28;20024;-49
2022/06/14 08:35:53;;;;;;;5.32;2.28;;;;;;;;;;5047852;28;20428;-52
2022/06/14 08:38:25;;;;;;;6.85;2.30;;;;;;;;;;5049184;28;20021;-53
2022/06/14 08:40:51;;;;;;;3.28;2.20;;;;;;;;;;5049958;28;20112;-50
2022/06/14 08:43:21;;;;;;;7.43;2.78;;;;;;;;;;5049166;28;20179;-49
2022/06/14 08:46:11;;;;;;;3.88;2.40;;;;;;;;;;5052024;28;20049;-51
2022/06/14 08:48:42;;;;;;;4.88;2.95;;;;;;;;;;5052581;28;20068;-50
2022/06/14 08:51:09;;;;;;;5.13;3.17;;;;;;;;;;5050078;28;20071;-49
2022/06/14 08:53:50;;;;;;;4.82;2.45;;;;;;;;;;5053224;28;20371;-50
2022/06/14 08:56:35;;;;;;;6.07;2.38;;;;;;;;;;5050408;28;20030;-50
2022/06/14 08:59:03;;;;;;;5.18;2.10;;;;;;;;;;5052102;28;20378;-51
2022/06/14 09:01:29;;;;;;;5.10;2.25;;;;;;;;;;5056930;28;20565;-52
2022/06/14 09:03:55;;;;;;;7.28;3.10;;;;;;;;;;5053440;28;20104;-50
2022/06/14 09:06:21;;;;;;;4.35;2.47;;;;;;;;;;5052925;28;20024;-49
2022/06/14 09:09:01;;;;;;;5.88;3.20;;;;;;;;;;5055545;28;20535;-54
2022/06/14 09:11:47;;;;;;;3.13;1.95;;;;;;;;;;5049459;28;20474;-55
2022/06/14 09:14:28;;;;;;;4.40;2.10;;;;;;;;;;5052883;28;20662;-53
2022/06/14 09:16:54;;;;;;;3.97;2.10;;;;;;;;;;5052862;28;20482;-54
2022/06/14 09:19:26;;;;;;;4.70;2.25;;;;;;;;;;5062975;28;20049;-54
2022/06/14 09:21:57;;;;;;;8.15;2.83;;;;;;;;;;5055209;28;20021;-50
2022/06/14 09:24:38;;;;;;;5.57;2.30;;;;;;;;;;5071077;28;20024;-52
2022/06/14 09:27:17;;;;;;;6.90;2.35;;;;;;;;;;5051956;28;20382;-49
2022/06/14 09:30:21;;;;;;;8.18;3.35;;;;;;;;;;5053139;28;20501;-52
2022/06/14 09:33:15;;;;;;;3.80;2.10;;;;;;;;;;5031646;28;20060;-52
2022/06/14 09:35:41;;;;;;;4.68;2.35;;;;;;;;;;5030966;28;20041;-49
2022/06/14 09:38:25;;;;;;;4.18;2.70;;;;;;;;;;5030290;28;20042;-50
2022/06/14 09:40:59;;;;;;;3.78;2.20;;;;;;;;;;5031225;28;20441;-52
2022/06/14 09:43:27;;;;;;;3.50;2.10;;;;;;;;;;5030799;28;20041;-50
2022/06/14 09:46:01;;;;;;;3.30;2.00;;;;;;;;;;5030454;28;20050;-53
2022/06/14 09:48:46;;;;;;;5.85;2.33;;;;;;;;;;5030824;28;20037;-51
2022/06/14 09:51:26;;;;;;;4.80;2.40;;;;;;;;;;5029343;28;20042;-51
2022/06/14 09:53:58;;;;;;;2.15;1.80;;;;;;;;;;5030963;28;20033;-51
2022/06/14 09:56:24;;;;;;;;;;;;;;;;;;5030738;28;20033;-50
2022/06/14 09:58:52;;;;;;;4.82;2.53;;;;;;;;;;5029948;28;20386;-53
2022/06/14 10:01:24;;;;;;;3.90;2.17;;;;;;;;;;5035518;28;20034;-53
2022/06/14 10:03:50;;;;;;;;;;;;;;;;;;5040317;28;20052;-53
2022/06/14 10:06:25;;;;;;;4.15;2.00;;;;;;;;;;5052031;28;20475;-53
2022/06/14 10:09:06;;;;;;;2.70;1.95;;;;;;;;;;5052592;28;20037;-49
2022/06/14 10:11:51;;;;;;;2.85;2.00;;;;;;;;;;5047616;28;20413;-53
2022/06/14 10:14:19;;;;;;;5.18;2.65;;;;;;;;;;5051618;28;20102;-53
2022/06/14 10:16:54;;;;;;;7.18;2.50;;;;;;;;;;5052523;28;20056;-53
2022/06/14 10:19:26;;;;;;;3.95;2.45;;;;;;;;;;5046904;28;20032;-51
2022/06/14 10:22:15;;;;;;;4.10;2.00;;;;;;;;;;5050666;28;20082;-53
2022/06/14 10:24:50;;;;;;;3.60;2.28;;;;;;;;;;5050095;28;20029;-53
2022/06/14 10:30:29;;;;;;;4.53;1.58;;;;;;;;;;5052323;28;20048;-53
2022/06/14 10:33:00;;;;;;;2.70;1.75;;;;;;;;;;5052113;28;20093;-54
2022/06/14 10:35:32;;;;;;;6.68;1.95;;;;;;;;;;5043691;28;20021;-53
2022/06/14 10:38:05;;;;;;;2.42;1.88;;;;;;;;;;5051281;28;20147;-53
2022/06/14 10:40:34;;;;;;;3.50;2.00;;;;;;;;;;5053115;28;20477;-55
2022/06/14 10:43:18;;;;;;;5.78;2.10;;;;;;;;;;5047271;28;20386;-55
2022/06/14 10:45:51;;;;;;;3.65;1.83;;;;;;;;;;5049813;28;20049;-56
2022/06/14 10:48:20;;;;;;;3.88;1.95;;;;;;;;;;5044960;28;20041;-56
2022/06/14 10:50:47;;;;;;;4.50;1.95;;;;;;;;;;5044678;28;20600;-57
2022/06/14 10:53:23;;;;;;;3.47;2.08;;;;;;;;;;5047071;28;20040;-56
2022/06/14 10:56:13;;;;;;;3.05;2.03;;;;;;;;;;5065955;28;20033;-56
2022/06/14 10:58:39;;;;;;;4.45;2.40;;;;;;;;;;5047114;28;20030;-57
2022/06/14 11:01:23;;;;;;;3.80;1.73;;;;;;;;;;5061163;28;20025;-56
2022/06/14 11:03:55;;;;;;;3.72;1.83;;;;;;;;;;5048926;28;20021;-56
2022/06/14 11:06:24;;;;;;;4.40;2.10;;;;;;;;;;5045353;28;20064;-55
2022/06/14 11:08:59;;;;;;;3.75;2.22;;;;;;;;;;5048976;28;20037;-56
2022/06/14 11:11:31;;;;;;;2.30;1.80;;;;;;;;;;5045601;28;20013;-56
2022/06/14 11:14:21;;;;;;;4.35;2.00;;;;;;;;;;5043822;28;20055;-52
2022/06/14 11:16:55;;;;;;;3.33;1.98;;;;;;;;;;5051462;28;20052;-55
2022/06/14 11:19:36;;;;;;;3.47;1.92;;;;;;;;;;5043230;28;20017;-56
2022/06/14 11:22:22;;;;;;;4.32;1.92;;;;;;;;;;5035243;28;20079;-55
2022/06/14 11:24:55;;;;;;;2.67;2.05;;;;;;;;;;5048153;28;20374;-56
2022/06/14 11:27:27;;;;;;;3.05;2.10;;;;;;;;;;5051297;28;20025;-56
2022/06/14 11:29:53;;;;;;;3.28;1.95;;;;;;;;;;5051522;28;20025;-56
2022/06/14 11:32:29;;;;;;;3.35;2.20;;;;;;;;;;5056072;28;20664;-55
2022/06/14 11:35:13;;;;;;;3.33;1.98;;;;;;;;;;5050619;28;20103;-51
2022/06/14 11:37:58;;;;;;;2.58;1.73;;;;;;;;;;5051138;28;20367;-56
2022/06/14 11:40:26;;;;;;;2.20;1.83;;;;;;;;;;5050693;28;20035;-56
2022/06/14 11:42:58;;;;;;;2.78;1.70;;;;;;;;;;5050415;28;20054;-55
2022/06/14 11:45:27;;;;;;;6.75;2.20;;;;;;;;;;5045056;28;20094;-56
2022/06/14 11:48:03;;;;;;;5.60;1.90;;;;;;;;;;5049670;28;20029;-56
2022/06/14 11:50:31;;;;;;;3.50;1.98;;;;;;;;;;5043691;28;20028;-56
2022/06/14 11:53:19;;;;;;;2.20;2.00;;;;;;;;;;5047550;28;20021;-52
2022/06/14 11:55:52;;;;;;;3.03;1.77;;;;;;;;;;5047624;28;20051;-55
2022/06/14 11:58:22;;;;;;;3.05;1.90;;;;;;;;;;5050174;28;20040;-56
2022/06/14 12:01:07;;;;;;;3.47;1.52;;;;;;;;;;5056419;28;20024;-56
2022/06/14 12:03:39;;;;;;;3.15;2.10;;;;;;;;;;5046845;28;20108;-56
2022/06/14 12:06:07;;;;;;;2.95;2.10;;;;;;;;;;5049563;28;20100;-55
2022/06/14 12:08:34;;;;;;;2.63;1.95;;;;;;;;;;5049922;28;20494;-54
2022/06/14 12:11:03;;;;;;;2.10;1.73;;;;;;;;;;5047191;28;20078;-55
2022/06/14 12:13:38;;;;;;;2.13;1.75;;;;;;;;;;5033462;28;20032;-55
2022/06/14 12:16:17;;;;;;;3.00;2.10;;;;;;;;;;5046975;28;20092;-55
2022/06/14 12:18:46;;;;;;;2.85;1.70;;;;;;;;;;5049803;28;20389;-56
2022/06/14 12:21:28;;;;;;;2.75;1.75;;;;;;;;;;5051416;28;20118;-56
2022/06/14 12:23:57;;;;;;;3.13;1.67;;;;;;;;;;5061968;28;20494;-56
2022/06/14 12:26:40;;;;;;;3.75;1.70;;;;;;;;;;5050651;28;20025;-57
2022/06/14 12:29:12;;;;;;;3.30;2.00;;;;;;;;;;5044426;28;20120;-56
2022/06/14 12:31:48;;;;;;;2.58;1.80;;;;;;;;;;5053750;28;20029;-56
2022/06/14 12:34:14;;;;;;;1.77;1.60;;;;;;;;;;5062534;28;20112;-57
2022/06/14 12:36:43;;;;;;;4.22;2.85;;;;;;;;;;5060803;28;20146;-56
2022/06/14 12:39:25;;;;;;;2.38;1.42;;;;;;;;;;5062125;28;20056;-56
2022/06/14 12:41:58;;;;;;;1.98;1.77;;;;;;;;;;5062095;28;20021;-56
2022/06/14 12:44:24;;;;;;;3.13;1.98;;;;;;;;;;5051307;28;20029;-55
2022/06/14 12:46:52;;;;;;;2.90;1.60;;;;;;;;;;5037142;28;20041;-55
2022/06/14 12:49:22;;;;;;;2.53;1.40;;;;;;;;;;5047399;28;20029;-55
2022/06/14 12:51:56;;;;;;;4.00;1.60;;;;;;;;;;5049899;28;20360;-56
2022/06/14 12:54:22;;;;;;;2.67;1.60;;;;;;;;;;5054508;28;20048;-54
2022/06/14 12:56:53;;;;;;;2.65;1.48;;;;;;;;;;5057573;28;20026;-53
2022/06/14 12:59:28;;;;;;;2.65;1.58;;;;;;;;;;5061922;28;20672;-54
2022/06/14 13:02:07;;;;;;;2.85;2.05;;;;;;;;;;5056172;28;20025;-55
2022/06/14 13:04:36;;;;;;;2.95;1.67;;;;;;;;;;5051987;28;20366;-55
2022/06/14 13:07:16;;;;;;;3.05;1.90;;;;;;;;;;5053441;28;20020;-55
2022/06/14 13:09:42;;;;;;;3.30;1.85;;;;;;;;;;5047812;28;20052;-55
2022/06/14 13:12:08;;;;;;;4.45;2.35;;;;;;;;;;5054697;28;20017;-55
2022/06/14 13:14:41;;;;;;;3.22;1.73;;;;;;;;;;5054778;28;20075;-54
2022/06/14 13:17:08;;;;;;;3.13;1.85;;;;;;;;;;5055849;28;20490;-55
2022/06/14 13:19:54;;;;;;;2.33;1.70;;;;;;;;;;5053820;28;20033;-55
2022/06/14 13:22:40;;;;;;;2.72;1.95;;;;;;;;;;5052569;28;20013;-55
2022/06/14 13:25:25;;;;;;;4.13;1.90;;;;;;;;;;5052342;28;20036;-55
2022/06/14 13:28:10;;;;;;;4.13;2.30;;;;;;;;;;5054339;28;20437;-55
2022/06/14 13:30:42;;;;;;;4.13;2.03;;;;;;;;;;5060847;28;20758;-55
2022/06/14 13:33:23;;;;;;;3.20;1.77;;;;;;;;;;5062887;28;20494;-55
2022/06/14 13:36:00;;;;;;;3.97;1.80;;;;;;;;;;5056772;28;20417;-55
2022/06/14 13:38:36;;;;;;;3.28;1.85;;;;;;;;;;5052182;28;20025;-55
2022/06/14 13:41:30;;;;;;;3.80;1.85;;;;;;;;;;5045095;28;20031;-53
2022/06/14 13:44:15;;;;;;;4.63;2.20;;;;;;;;;;5051805;28;20040;-55
2022/06/14 13:46:43;;;;;;;3.90;2.30;;;;;;;;;;5056318;28;20057;-55
2022/06/14 13:49:17;;;;;;;3.83;1.90;;;;;;;;;;5052513;28;20124;-54
2022/06/14 13:51:55;;;;;;;4.65;2.05;;;;;;;;;;5054113;28;20025;-55
2022/06/14 13:54:40;;;;;;;3.03;1.80;;;;;;;;;;5047974;28;20036;-55
2022/06/14 13:57:24;;;;;;;3.10;2.00;;;;;;;;;;5048122;28;20101;-55
2022/06/14 13:59:52;;;;;;;4.32;1.80;;;;;;;;;;5044132;28;20067;-55
2022/06/14 14:02:31;;;;;;;2.78;1.70;;;;;;;;;;5054615;28;20568;-54
2022/06/14 14:04:57;;;;;;;5.03;2.47;;;;;;;;;;5046537;28;20443;-55
2022/06/14 14:07:26;;;;;;;3.53;2.00;;;;;;;;;;5058794;28;20029;-55
2022/06/14 14:10:12;;;;;;;3.53;1.85;;;;;;;;;;5036667;28;20074;-55
2022/06/14 14:12:42;;;;;;;2.50;1.65;;;;;;;;;;5043039;28;20039;-53
2022/06/14 14:15:18;;;;;;;2.83;1.92;;;;;;;;;;5041012;28;20029;-55
2022/06/14 14:18:03;;;;;;;3.25;2.00;;;;;;;;;;5045369;28;20037;-55
2022/06/14 14:20:32;;;;;;;3.78;1.65;;;;;;;;;;5045227;28;20025;-55
2022/06/14 14:23:04;;;;;;;2.72;1.75;;;;;;;;;;5039050;28;20036;-53
2022/06/14 14:25:34;;;;;;;4.78;2.00;;;;;;;;;;5037735;28;20029;-55
2022/06/14 14:28:04;;;;;;;6.78;2.72;;;;;;;;;;5045171;28;20027;-53
2022/06/14 14:30:49;;;;;;;4.05;2.28;;;;;;;;;;5047024;28;20056;-57
2022/06/14 14:33:18;;;;;;;3.38;1.90;;;;;;;;;;5042683;28;20086;-53
2022/06/14 14:35:59;;;;;;;2.72;2.05;;;;;;;;;;5044867;28;20017;-53
2022/06/14 14:38:29;;;;;;;3.58;1.80;;;;;;;;;;5044752;28;20016;-53
2022/06/14 14:43:46;;;;;;;3.08;1.63;;;;;;;;;;5044919;28;20051;-54
2022/06/14 14:46:14;;;;;;;3.42;2.15;;;;;;;;;;5045741;28;20049;-55
2022/06/14 14:48:49;;;;;;;2.85;1.85;;;;;;;;;;5039268;28;20029;-53
2022/06/14 14:51:34;;;;;;;3.60;1.95;;;;;;;;;;5042806;28;20037;-55
2022/06/14 14:54:06;;;;;;;2.58;1.70;;;;;;;;;;5038645;28;20025;-52
2022/06/14 14:56:35;;;;;;;3.00;2.00;;;;;;;;;;5043323;28;20462;-55
2022/06/14 14:59:17;;;;;;;3.08;1.98;;;;;;;;;;5037237;28;20039;-54
2022/06/14 15:07:33;;;;;;;3.95;2.35;;;;;;;;;;5040602;28;20090;-53
2022/06/14 15:10:09;;;;;;;2.15;1.60;;;;;;;;;;5045451;28;20530;-55
2022/06/14 15:12:36;;;;;;;2.10;1.58;;;;;;;;;;5043803;28;20061;-52
2022/06/14 15:15:14;;;;;;;3.88;2.33;;;;;;;;;;5039572;28;20066;-54
2022/06/14 15:20:27;;;;;;;5.20;1.90;;;;;;;;;;5043474;28;20032;-54
2022/06/14 15:22:54;;;;;;;3.22;1.50;;;;;;;;;;5038832;28;20029;-57
2022/06/14 15:25:21;;;;;;;2.53;1.50;;;;;;;;;;5032558;28;20526;-56
2022/06/14 15:27:52;;;;;;;4.55;2.05;;;;;;;;;;5043001;28;20112;-55
2022/06/14 15:30:37;;;;;;;3.78;1.70;;;;;;;;;;5037773;28;20051;-56
2022/06/14 15:33:14;;;;;;;3.75;1.95;;;;;;;;;;5039081;28;20045;-55
2022/06/14 15:35:48;;;;;;;4.18;1.90;;;;;;;;;;5043213;28;20029;-56
2022/06/14 15:38:14;;;;;;;2.50;2.00;;;;;;;;;;5041286;28;20104;-57
2022/06/14 15:40:40;;;;;;;2.70;1.67;;;;;;;;;;5039790;28;20111;-55
2022/06/14 15:43:16;;;;;;;4.18;2.30;;;;;;;;;;5041310;28;20025;-56